Time;durP1;ratioP1;P1;durP2;ratioP2;P2;SDS_P1;SDS_P2;PMS_P1;PMS_P2;Temp;Humidity;BMP_temperature;BMP_pressure;BME280_temperature;BME280_humidity;BME280_pressure;Samples;Min_cycle;Max_cycle;Signal;HPM_P1;HPM_P2
2022/07/04 00:00:08;;;;;;;6.75;5.45;;;14.50;99.90;;;;;;5051033;28;20068;-56
2022/07/04 00:02:35;;;;;;;8.52;5.78;;;14.10;99.90;;;;;;5051598;28;20045;-56
2022/07/04 00:05:00;;;;;;;11.55;6.30;;;14.40;99.90;;;;;;5051119;28;20072;-57
2022/07/04 00:07:26;;;;;;;7.88;6.07;;;14.40;99.90;;;;;;5051743;28;20138;-56
2022/07/04 00:09:52;;;;;;;10.48;6.55;;;14.40;99.90;;;;;;5055033;28;20476;-56
2022/07/04 00:12:18;;;;;;;12.02;6.60;;;14.30;99.90;;;;;;5055786;28;20041;-56
2022/07/04 00:14:43;;;;;;;10.30;6.60;;;14.30;99.90;;;;;;5054966;28;20037;-57
2022/07/04 00:17:09;;;;;;;10.02;6.40;;;14.90;99.90;;;;;;5055361;28;20128;-57
2022/07/04 00:19:35;;;;;;;10.02;6.47;;;14.10;99.90;;;;;;5055247;28;20396;-56
2022/07/04 00:22:01;;;;;;;10.02;6.63;;;14.10;99.90;;;;;;5055280;28;20067;-56
2022/07/04 00:24:26;;;;;;;9.45;7.00;;;14.20;99.90;;;;;;5054843;28;20451;-57
2022/07/04 00:26:52;;;;;;;11.27;7.28;;;14.20;99.90;;;;;;5036924;28;20044;-56
2022/07/04 00:29:18;;;;;;;9.32;7.55;;;14.20;99.90;;;;;;5054986;28;20102;-56
2022/07/04 00:31:44;;;;;;;13.38;8.25;;;14.20;99.90;;;;;;5054752;28;20083;-57
2022/07/04 00:34:09;;;;;;;11.95;8.18;;;14.20;99.90;;;;;;5054944;28;20040;-53
2022/07/04 00:36:35;;;;;;;9.48;8.23;;;14.40;99.90;;;;;;5054553;28;20040;-49
2022/07/04 00:39:01;;;;;;;10.32;8.25;;;14.10;99.90;;;;;;5055025;28;20079;-48
2022/07/04 00:41:26;;;;;;;9.02;7.55;;;14.50;99.90;;;;;;5054488;28;20419;-51
2022/07/04 00:44:05;;;;;;;8.40;7.18;;;14.20;99.90;;;;;;5054607;28;20041;-48
2022/07/04 00:46:31;;;;;;;9.25;7.70;;;;;;;;;;5054372;28;20095;-51
2022/07/04 00:48:56;;;;;;;9.57;7.22;;;14.00;99.90;;;;;;5054345;28;20049;-50
2022/07/04 00:51:23;;;;;;;9.63;8.13;;;14.30;99.90;;;;;;5054374;28;20115;-49
2022/07/04 00:53:50;;;;;;;8.77;7.30;;;14.00;99.90;;;;;;5055000;28;20048;-50
2022/07/04 00:56:16;;;;;;;13.15;7.63;;;13.90;99.90;;;;;;5036519;28;20077;-48
2022/07/04 00:58:42;;;;;;;12.15;7.50;;;13.90;99.90;;;;;;5054399;28;20043;-52
2022/07/04 01:01:08;;;;;;;10.98;8.05;;;13.60;99.90;;;;;;5040594;23;21374;-61
2022/07/04 01:03:34;;;;;;;12.55;7.70;;;13.80;99.90;;;;;;5014837;28;20507;-61
2022/07/04 01:06:00;;;;;;;9.07;7.57;;;13.70;99.90;;;;;;4996969;28;20041;-61
2022/07/04 01:08:26;;;;;;;12.82;6.70;;;;;;;;;;5014779;28;20042;-61
2022/07/04 01:10:52;;;;;;;12.52;7.38;;;14.00;99.90;;;;;;5014594;28;20038;-61
2022/07/04 01:13:20;;;;;;;8.50;7.60;;;13.40;99.90;;;;;;4997348;28;20484;-61
2022/07/04 01:15:46;;;;;;;10.13;8.30;;;13.20;99.90;;;;;;4996812;28;20056;-61
2022/07/04 01:18:12;;;;;;;11.98;7.80;;;13.30;99.90;;;;;;5013726;28;20050;-61
2022/07/04 01:20:38;;;;;;;10.38;8.15;;;13.40;99.90;;;;;;4996637;28;20103;-61
2022/07/04 01:23:04;;;;;;;10.65;8.75;;;13.60;99.90;;;;;;5014600;28;20121;-61
2022/07/04 01:25:36;;;;;;;8.98;7.75;;;13.70;99.90;;;;;;5014621;28;20042;-61
2022/07/04 01:28:03;;;;;;;9.70;8.60;;;14.00;99.90;;;;;;5014328;28;20042;-61
2022/07/04 01:30:29;;;;;;;9.50;8.35;;;13.40;99.90;;;;;;5014277;28;20076;-61
2022/07/04 01:32:57;;;;;;;11.93;8.95;;;13.60;99.90;;;;;;5014213;28;20045;-61
2022/07/04 01:35:23;;;;;;;13.15;8.23;;;13.20;99.90;;;;;;5014471;28;20424;-61
2022/07/04 01:37:50;;;;;;;12.13;8.68;;;13.70;99.90;;;;;;5014118;28;20030;-61
2022/07/04 01:40:15;;;;;;;9.80;8.77;;;13.50;99.90;;;;;;5014165;28;20041;-61
2022/07/04 01:42:44;;;;;;;11.73;8.43;;;13.50;99.90;;;;;;4996244;28;20120;-61
2022/07/04 01:45:12;;;;;;;9.15;8.20;;;13.20;99.90;;;;;;5013849;28;20045;-61
2022/07/04 01:47:41;;;;;;;10.88;9.15;;;13.50;99.90;;;;;;5013713;28;20480;-61
2022/07/04 01:50:12;;;;;;;12.23;9.43;;;13.50;99.90;;;;;;5013916;28;20042;-61
2022/07/04 01:52:39;;;;;;;13.20;9.90;;;13.30;99.90;;;;;;5013715;28;20078;-61
2022/07/04 01:55:06;;;;;;;11.50;9.95;;;13.10;99.90;;;;;;5013761;28;20095;-62
2022/07/04 01:57:32;;;;;;;12.50;9.43;;;13.80;99.90;;;;;;5013959;28;20046;-61
2022/07/04 02:02:47;;;;;;;12.15;10.00;;;13.60;99.90;;;;;;5013428;28;20137;-61
2022/07/04 02:05:13;;;;;;;11.55;9.30;;;13.50;99.90;;;;;;5013713;28;20037;-62
2022/07/04 02:07:38;;;;;;;13.55;9.52;;;13.30;99.90;;;;;;5013505;28;20072;-62
2022/07/04 02:10:04;;;;;;;13.00;9.80;;;13.10;99.90;;;;;;5013528;28;20037;-62
2022/07/04 02:15:15;;;;;;;12.27;8.73;;;13.50;99.90;;;;;;5013276;28;20493;-62
2022/07/04 02:17:40;;;;;;;12.00;9.02;;;13.50;99.90;;;;;;5013549;28;20038;-62
2022/07/04 02:20:06;;;;;;;12.73;8.93;;;13.10;99.90;;;;;;5013544;28;20648;-62
2022/07/04 02:22:32;;;;;;;10.80;8.70;;;12.90;99.90;;;;;;4995820;28;20056;-61
2022/07/04 02:24:58;;;;;;;14.75;9.55;;;13.40;99.90;;;;;;5013638;28;20125;-61
2022/07/04 02:27:23;;;;;;;11.23;9.73;;;13.00;99.90;;;;;;5012827;28;20130;-61
2022/07/04 02:29:53;;;;;;;12.35;9.00;;;13.30;99.90;;;;;;5012666;28;20049;-61
2022/07/04 02:32:20;;;;;;;10.95;9.38;;;13.10;99.90;;;;;;5012892;28;20045;-61
2022/07/04 02:34:46;;;;;;;13.57;9.15;;;13.20;99.90;;;;;;4995365;28;20049;-62
2022/07/04 02:37:12;;;;;;;14.00;9.48;;;;;;;;;;5013108;28;20038;-61
2022/07/04 02:39:39;;;;;;;11.23;9.50;;;14.00;99.90;;;;;;4995773;28;20037;-62
2022/07/04 02:42:07;;;;;;;11.77;9.80;;;13.40;99.90;;;;;;5012951;28;20034;-61
2022/07/04 02:44:33;;;;;;;10.40;8.98;;;13.40;99.90;;;;;;5012716;28;20600;-61
2022/07/04 02:47:00;;;;;;;10.75;9.43;;;13.10;99.90;;;;;;5012629;28;20125;-62
2022/07/04 02:49:26;;;;;;;14.77;10.90;;;13.50;99.90;;;;;;5012828;28;20397;-62
2022/07/04 02:51:52;;;;;;;12.82;10.32;;;13.60;99.90;;;;;;5012812;28;20041;-62
2022/07/04 02:54:18;;;;;;;11.30;10.13;;;13.10;99.90;;;;;;5012871;28;20036;-61
2022/07/04 02:56:43;;;;;;;15.85;13.52;;;13.30;99.90;;;;;;5012815;28;20042;-61
2022/07/04 02:59:11;;;;;;;12.95;10.80;;;13.10;99.90;;;;;;5012509;28;20045;-61
2022/07/04 03:01:37;;;;;;;11.63;9.63;;;;;;;;;;5012381;28;20054;-61
2022/07/04 03:04:03;;;;;;;10.00;8.68;;;12.70;99.90;;;;;;5012615;28;20053;-61
2022/07/04 03:06:30;;;;;;;9.80;8.90;;;13.30;99.90;;;;;;5012553;28;20072;-61
2022/07/04 03:08:56;;;;;;;10.00;8.95;;;12.80;99.90;;;;;;5012254;28;20497;-61
2022/07/04 03:11:24;;;;;;;12.98;9.70;;;12.90;99.90;;;;;;5012811;28;20055;-61
2022/07/04 03:13:49;;;;;;;13.02;9.98;;;12.60;99.90;;;;;;5011109;28;20402;-61
2022/07/04 03:16:15;;;;;;;12.90;10.00;;;;;;;;;;5012417;28;20042;-62
2022/07/04 03:18:45;;;;;;;15.50;10.43;;;12.50;99.90;;;;;;4994431;28;20041;-61
2022/07/04 03:21:11;;;;;;;12.40;9.73;;;;;;;;;;5012230;28;20048;-61
2022/07/04 03:23:38;;;;;;;13.25;9.38;;;;;;;;;;4994488;28;20045;-61
2022/07/04 03:26:04;;;;;;;12.95;10.35;;;12.70;99.90;;;;;;5011953;28;20404;-61
2022/07/04 03:28:30;;;;;;;14.13;11.15;;;12.90;99.90;;;;;;5010949;28;20042;-61
2022/07/04 03:30:56;;;;;;;15.75;11.90;;;;;;;;;;5012412;28;20069;-61
2022/07/04 03:33:24;;;;;;;12.98;10.65;;;13.70;99.90;;;;;;5011913;28;20037;-61
2022/07/04 03:35:49;;;;;;;17.05;10.73;;;12.90;99.90;;;;;;4994377;28;20045;-61
2022/07/04 03:38:16;;;;;;;13.68;11.32;;;;;;;;;;5011806;28;20045;-61
2022/07/04 03:40:42;;;;;;;14.35;9.63;;;;;;;;;;5012114;28;20046;-57
2022/07/04 03:43:08;;;;;;;13.60;10.80;;;13.20;99.90;;;;;;5011630;28;20041;-57
2022/07/04 03:45:34;;;;;;;13.63;11.35;;;12.90;99.90;;;;;;4994062;28;20042;-58
2022/07/04 03:48:02;;;;;;;12.25;10.68;;;13.10;99.90;;;;;;5011666;28;20042;-58
2022/07/04 03:50:28;;;;;;;13.95;11.00;;;;;;;;;;5011909;28;20045;-60
2022/07/04 03:52:54;;;;;;;16.27;11.25;;;12.90;99.90;;;;;;5011738;28;20076;-61
2022/07/04 03:55:20;;;;;;;12.35;11.05;;;;;;;;;;5011992;28;20046;-61
2022/07/04 03:57:47;;;;;;;14.02;11.70;;;13.00;99.90;;;;;;5011845;28;20053;-61
2022/07/04 04:00:13;;;;;;;14.57;12.05;;;13.20;99.90;;;;;;5011849;28;20473;-61
2022/07/04 04:02:39;;;;;;;15.32;11.77;;;13.50;99.90;;;;;;5011993;28;20053;-61
2022/07/04 04:07:51;;;;;;;16.95;14.00;;;12.20;99.90;;;;;;5011542;28;20111;-61
2022/07/04 04:10:16;;;;;;;16.65;12.80;;;13.30;99.90;;;;;;5011709;28;20529;-62
2022/07/04 04:12:42;;;;;;;16.10;12.70;;;13.20;99.90;;;;;;5011940;28;20390;-62
2022/07/04 04:15:08;;;;;;;17.02;13.27;;;13.70;99.90;;;;;;5011790;28;20073;-62
2022/07/04 04:17:34;;;;;;;19.27;13.52;;;;;;;;;;5011427;28;20114;-61
2022/07/04 04:20:02;;;;;;;17.67;12.48;;;13.50;99.90;;;;;;5011399;28;20053;-62
2022/07/04 04:22:30;;;;;;;19.20;13.20;;;13.50;99.90;;;;;;5011795;28;20393;-62
2022/07/04 04:24:57;;;;;;;17.45;12.20;;;13.60;99.90;;;;;;5011765;28;20061;-62
2022/07/04 04:27:23;;;;;;;14.73;12.20;;;13.40;99.90;;;;;;4993777;28;20479;-61
2022/07/04 04:29:48;;;;;;;16.67;12.20;;;13.80;99.90;;;;;;5011580;28;20130;-62
2022/07/04 04:32:14;;;;;;;15.45;12.00;;;13.70;99.90;;;;;;5010523;28;20056;-62
2022/07/04 04:34:40;;;;;;;13.05;11.05;;;13.90;99.90;;;;;;5011791;28;20125;-62
2022/07/04 04:37:05;;;;;;;13.95;9.85;;;14.40;99.90;;;;;;5011164;28;20038;-63
2022/07/04 04:39:35;;;;;;;12.60;8.88;;;15.90;99.90;;;;;;5011560;28;20046;-62
2022/07/04 04:42:01;;;;;;;12.60;8.18;;;16.80;99.90;;;;;;5011258;28;20518;-62
2022/07/04 04:44:26;;;;;;;10.05;7.47;;;17.90;99.90;;;;;;5011584;28;20113;-62
2022/07/04 04:46:54;;;;;;;12.07;7.60;;;18.90;99.90;;;;;;5011164;28;20444;-62
2022/07/04 04:49:19;;;;;;;13.02;6.90;;;19.30;99.90;;;;;;5011176;28;20030;-62
2022/07/04 04:51:45;;;;;;;10.02;7.07;;;19.80;99.90;;;;;;5008990;28;20046;-62
2022/07/04 04:54:11;;;;;;;9.15;6.45;;;20.20;99.90;;;;;;5013237;28;20038;-62
2022/07/04 04:56:37;;;;;;;11.23;6.00;;;20.90;99.90;;;;;;5015184;28;20034;-62
2022/07/04 04:59:02;;;;;;;7.88;5.80;;;21.90;99.90;;;;;;5015041;28;20121;-63
2022/07/04 05:01:28;;;;;;;9.20;5.40;;;22.30;99.90;;;;;;5014745;28;20054;-62
2022/07/04 05:03:55;;;;;;;10.43;5.30;;;;;;;;;;5038351;22;20078;-77
2022/07/04 05:06:21;;;;;;;9.00;5.20;;;;;;;;;;5014651;28;20366;-78
2022/07/04 05:08:50;;;;;;;9.63;4.93;;;23.30;99.90;;;;;;4997123;28;20042;-78
2022/07/04 05:11:16;;;;;;;9.60;4.80;;;;;;;;;;5015034;28;20049;-77
2022/07/04 05:13:41;;;;;;;11.52;4.85;;;24.20;99.90;;;;;;4997381;28;20046;-77
2022/07/04 05:16:07;;;;;;;7.93;5.00;;;24.30;99.90;;;;;;4981261;28;20049;-77
2022/07/04 05:18:33;;;;;;;10.13;5.20;;;;;;;;;;5014617;28;20492;-78
2022/07/04 05:20:59;;;;;;;7.45;4.65;;;25.10;97.00;;;;;;5014846;28;20085;-77
2022/07/04 05:23:25;;;;;;;8.55;4.97;;;;;;;;;;4997294;28;20073;-77
2022/07/04 05:25:50;;;;;;;10.20;4.63;;;25.60;92.90;;;;;;4981078;28;20053;-77
2022/07/04 05:28:16;;;;;;;8.32;4.70;;;25.90;91.70;;;;;;4997127;28;20432;-77
2022/07/04 05:30:42;;;;;;;8.32;4.57;;;26.60;92.80;;;;;;4996902;28;20125;-77
2022/07/04 05:33:08;;;;;;;8.90;4.63;;;26.80;92.80;;;;;;4996815;28;20045;-77
2022/07/04 05:35:34;;;;;;;11.05;4.70;;;26.90;90.60;;;;;;5014996;28;20060;-77
2022/07/04 05:37:59;;;;;;;10.68;4.90;;;27.00;90.40;;;;;;4980983;28;20050;-77
2022/07/04 05:40:25;;;;;;;9.63;4.40;;;27.30;79.70;;;;;;5014579;28;20115;-77
2022/07/04 05:42:51;;;;;;;9.48;4.50;;;27.60;77.10;;;;;;4996938;28;20057;-77
2022/07/04 05:45:16;;;;;;;8.38;4.07;;;28.20;79.50;;;;;;4996645;28;20104;-77
2022/07/04 05:47:42;;;;;;;9.07;4.32;;;28.10;71.30;;;;;;4996511;28;20048;-78
2022/07/04 05:50:09;;;;;;;12.82;4.38;;;28.40;69.10;;;;;;5014564;28;20084;-78
2022/07/04 05:52:35;;;;;;;7.13;4.35;;;28.60;67.50;;;;;;4997006;28;20080;-77
2022/07/04 05:55:01;;;;;;;6.00;3.90;;;28.70;66.40;;;;;;4996358;28;20042;-77
2022/07/04 05:57:27;;;;;;;8.38;4.72;;;28.70;65.60;;;;;;5014374;28;20057;-78
2022/07/04 05:59:53;;;;;;;12.68;4.72;;;29.10;70.20;;;;;;4980344;28;20054;-77
2022/07/04 06:02:18;;;;;;;7.57;4.60;;;28.80;69.40;;;;;;5013923;28;20050;-78
2022/07/04 06:04:44;;;;;;;8.73;4.40;;;29.40;69.50;;;;;;4995916;28;20049;-77
2022/07/04 06:07:10;;;;;;;8.75;4.00;;;;;;;;;;5014194;28;20392;-78
2022/07/04 06:09:36;;;;;;;8.48;4.72;;;30.10;58.40;;;;;;5013862;28;20049;-77
2022/07/04 06:12:03;;;;;;;10.68;4.05;;;30.80;64.90;;;;;;4979885;28;20053;-78
2022/07/04 06:14:29;;;;;;;9.60;4.25;;;30.50;64.20;;;;;;4996387;28;20054;-77
2022/07/04 06:16:54;;;;;;;9.02;3.85;;;30.80;56.00;;;;;;5013085;28;20056;-77
2022/07/04 06:19:20;;;;;;;9.20;4.30;;;30.70;55.90;;;;;;4996449;28;20433;-77
2022/07/04 06:21:46;;;;;;;6.70;3.95;;;30.80;55.50;;;;;;5013740;28;20113;-77
2022/07/04 06:24:12;;;;;;;9.52;3.83;;;31.00;54.80;;;;;;4995989;28;20042;-77
2022/07/04 06:26:40;;;;;;;8.45;4.18;;;31.30;63.70;;;;;;4996112;28;20078;-77
2022/07/04 06:29:06;;;;;;;6.82;3.88;;;31.10;54.80;;;;;;5013854;28;20369;-77
2022/07/04 06:31:31;;;;;;;7.97;4.25;;;31.40;60.70;;;;;;4995620;28;20046;-77
2022/07/04 06:36:41;;;;;;;8.45;3.67;;;31.20;59.10;;;;;;4995880;28;20046;-78
2022/07/04 06:39:07;;;;;;;9.60;3.85;;;31.70;52.40;;;;;;5013199;28;20046;-77
2022/07/04 06:41:32;;;;;;;8.15;3.50;;;31.90;57.50;;;;;;4995415;28;20468;-77
2022/07/04 06:43:58;;;;;;;6.82;3.50;;;31.70;57.40;;;;;;4979889;28;20472;-78
2022/07/04 06:46:24;;;;;;;7.05;3.33;;;32.00;59.00;;;;;;5013443;28;20041;-78
2022/07/04 06:48:52;;;;;;;7.53;3.42;;;32.10;50.70;;;;;;4995643;28;20046;-78
2022/07/04 06:51:18;;;;;;;8.25;3.25;;;;;;;;;;4995302;28;20408;-78
2022/07/04 06:53:45;;;;;;;6.63;3.00;;;31.60;56.90;;;;;;5013030;28;20045;-78
2022/07/04 06:56:11;;;;;;;6.43;3.13;;;;;;;;;;4997526;28;20068;-78
2022/07/04 06:58:37;;;;;;;7.10;3.30;;;31.40;50.90;;;;;;5026952;28;20072;-77
2022/07/04 07:01:03;;;;;;;8.50;3.42;;;31.50;49.90;;;;;;5024178;28;20065;-77
2022/07/04 07:03:31;;;;;;;7.65;3.22;;;31.30;50.20;;;;;;4997757;28;20403;-77
2022/07/04 07:05:57;;;;;;;9.77;3.30;;;30.80;50.90;;;;;;5022994;28;20049;-77
2022/07/04 07:08:23;;;;;;;8.90;3.72;;;30.60;59.70;;;;;;5005912;28;20184;-77
2022/07/04 07:10:49;;;;;;;8.00;3.35;;;30.30;59.10;;;;;;4989066;28;20053;-77
2022/07/04 07:13:14;;;;;;;9.10;3.20;;;30.20;60.20;;;;;;5031452;28;20076;-77
2022/07/04 07:15:40;;;;;;;8.93;3.53;;;30.50;53.20;;;;;;4997409;28;20041;-77
2022/07/04 07:18:06;;;;;;;8.70;3.25;;;30.50;60.40;;;;;;5031309;28;20072;-77
2022/07/04 07:20:32;;;;;;;7.55;3.10;;;30.10;54.20;;;;;;5031342;28;20042;-77
2022/07/04 07:22:58;;;;;;;10.85;3.78;;;29.70;54.70;;;;;;5013406;28;20107;-76
2022/07/04 07:25:24;;;;;;;7.43;3.40;;;;;;;;;;5013677;28;20495;-77
2022/07/04 07:27:49;;;;;;;10.80;3.40;;;28.20;65.10;;;;;;5013604;28;20065;-77
2022/07/04 07:30:15;;;;;;;12.70;3.72;;;28.30;58.20;;;;;;5030553;28;20125;-77
2022/07/04 07:32:41;;;;;;;6.38;3.42;;;28.20;59.00;;;;;;5031157;28;20076;-77
2022/07/04 07:35:07;;;;;;;9.38;3.17;;;27.10;71.00;;;;;;5031036;28;20125;-77
2022/07/04 07:37:33;;;;;;;7.97;3.10;;;27.00;70.50;;;;;;5031421;28;20053;-77
2022/07/04 07:39:58;;;;;;;8.40;3.10;;;27.00;63.80;;;;;;5030923;28;20052;-77
2022/07/04 07:42:24;;;;;;;10.88;3.38;;;26.70;74.20;;;;;;5009151;28;20054;-77
2022/07/04 07:44:50;;;;;;;6.95;3.05;;;;;;;;;;5011177;28;20452;-77
2022/07/04 07:47:16;;;;;;;9.10;3.30;;;26.30;75.90;;;;;;5010921;28;20050;-77
2022/07/04 07:49:42;;;;;;;10.07;3.55;;;27.90;81.40;;;;;;4993722;28;20204;-77
2022/07/04 07:52:08;;;;;;;9.27;3.15;;;26.60;70.80;;;;;;4993397;28;20461;-77
2022/07/04 07:54:34;;;;;;;11.55;3.97;;;26.90;71.30;;;;;;5010992;28;20104;-77
2022/07/04 07:56:59;;;;;;;7.93;3.30;;;26.80;70.60;;;;;;4993310;28;20390;-77
2022/07/04 07:59:25;;;;;;;10.15;3.10;;;25.80;79.80;;;;;;4993682;28;20053;-77
2022/07/04 08:01:51;;;;;;;10.90;3.22;;;26.00;74.50;;;;;;4993982;28;20531;-77
2022/07/04 08:04:34;;;;;;;8.82;3.40;;;26.10;74.30;;;;;;4993127;28;20050;-77
2022/07/04 08:07:05;;;;;;;9.13;3.38;;;25.10;84.30;;;;;;4993316;28;20058;-77
2022/07/04 08:09:31;;;;;;;8.73;3.22;;;26.50;78.50;;;;;;4993782;28;20125;-77
2022/07/04 08:11:57;;;;;;;10.05;3.28;;;25.40;86.90;;;;;;4977508;28;20042;-77
2022/07/04 08:14:23;;;;;;;9.95;3.08;;;25.50;86.80;;;;;;4998278;28;20061;-77
2022/07/04 08:16:49;;;;;;;11.77;3.30;;;25.40;81.50;;;;;;5027846;28;20057;-77
2022/07/04 08:19:15;;;;;;;11.07;3.03;;;25.00;89.80;;;;;;5031082;28;20049;-78
2022/07/04 08:21:40;;;;;;;7.88;3.13;;;24.80;91.20;;;;;;4997922;28;20042;-77
2022/07/04 08:24:06;;;;;;;8.10;3.08;;;24.60;92.00;;;;;;5010904;28;20056;-77
2022/07/04 08:26:32;;;;;;;11.00;3.53;;;24.50;93.10;;;;;;4977372;28;20052;-77
2022/07/04 08:28:59;;;;;;;10.27;3.05;;;24.30;90.40;;;;;;5012942;28;20050;-77
2022/07/04 08:31:28;;;;;;;12.80;3.22;;;24.20;94.80;;;;;;5014853;28;20056;-76
2022/07/04 08:33:54;;;;;;;10.48;3.10;;;;;;;;;;4980972;28;20056;-77
2022/07/04 08:36:20;;;;;;;10.38;3.10;;;;;;;;;;4996869;28;20045;-78
2022/07/04 08:38:46;;;;;;;9.60;2.80;;;23.60;96.70;;;;;;5012129;28;20053;-77
2022/07/04 08:41:16;;;;;;;12.55;2.83;;;23.20;97.10;;;;;;5031407;28;20045;-77
2022/07/04 08:43:42;;;;;;;7.10;2.60;;;22.90;99.90;;;;;;4997203;28;20416;-76
2022/07/04 08:46:10;;;;;;;9.45;3.13;;;22.90;99.30;;;;;;5013710;28;20397;-76
2022/07/04 08:48:38;;;;;;;13.68;3.10;;;23.30;99.90;;;;;;5014849;28;20042;-77
2022/07/04 08:51:19;;;;;;;10.32;3.13;;;22.50;99.90;;;;;;5014611;28;20046;-77
2022/07/04 08:53:57;;;;;;;9.73;3.40;;;22.30;99.90;;;;;;5014753;28;20487;-76
2022/07/04 08:59:09;;;;;;;15.85;4.00;;;22.30;99.90;;;;;;5014282;28;20049;-76
2022/07/04 09:01:35;;;;;;;7.88;3.15;;;22.40;99.90;;;;;;5013802;28;20133;-77
2022/07/04 09:04:04;;;;;;;10.43;3.15;;;22.30;99.90;;;;;;5014038;28;20042;-76
2022/07/04 09:06:31;;;;;;;12.10;3.67;;;23.60;99.90;;;;;;4996256;28;20079;-76
2022/07/04 09:08:56;;;;;;;9.85;3.30;;;23.60;99.90;;;;;;4996558;28;20373;-77
2022/07/04 09:11:22;;;;;;;11.82;3.70;;;22.90;99.90;;;;;;4995998;28;20061;-76
2022/07/04 09:13:48;;;;;;;9.63;3.10;;;24.40;99.90;;;;;;4996499;28;20428;-77
2022/07/04 09:16:16;;;;;;;9.48;3.45;;;23.80;99.90;;;;;;5013439;28;20054;-77
2022/07/04 09:18:42;;;;;;;10.88;3.20;;;24.80;99.90;;;;;;4980110;28;20045;-76
2022/07/04 09:21:09;;;;;;;12.93;3.30;;;24.30;99.90;;;;;;5013400;28;20054;-76
2022/07/04 09:23:39;;;;;;;12.88;3.15;;;24.40;99.90;;;;;;4996145;28;20441;-76
2022/07/04 09:26:13;;;;;;;9.30;2.97;;;24.50;99.90;;;;;;5013176;28;20456;-77
2022/07/04 09:28:40;;;;;;;10.32;3.05;;;24.70;99.90;;;;;;4996009;28;20050;-77
2022/07/04 09:31:27;;;;;;;12.63;3.30;;;24.70;97.00;;;;;;5013145;28;20049;-76
2022/07/04 09:34:04;;;;;;;8.60;3.00;;;25.40;96.80;;;;;;4980048;28;20038;-77
2022/07/04 09:36:31;;;;;;;10.15;3.05;;;24.00;99.20;;;;;;4979444;28;20058;-77
2022/07/04 09:39:15;;;;;;;11.88;2.80;;;24.00;98.90;;;;;;4995932;28;20116;-77
2022/07/04 09:41:58;;;;;;;8.73;2.83;;;24.00;96.50;;;;;;4985318;28;20051;-77
2022/07/04 09:44:28;;;;;;;10.07;2.95;;;23.60;99.70;;;;;;4999312;28;20053;-77
2022/07/04 09:46:54;;;;;;;11.65;3.13;;;;;;;;;;5015125;28;20416;-77
2022/07/04 09:49:20;;;;;;;10.40;2.80;;;;;;;;;;5015409;28;20487;-77
2022/07/04 09:51:47;;;;;;;9.63;2.63;;;23.40;98.60;;;;;;5014885;28;20053;-77
2022/07/04 09:54:13;;;;;;;7.75;2.40;;;;;;;;;;4998954;28;20060;-77
2022/07/04 09:56:47;;;;;;;6.93;2.28;;;24.00;99.90;;;;;;4998299;28;20065;-76
2022/07/04 09:59:13;;;;;;;9.40;2.80;;;23.40;99.90;;;;;;4995183;28;20077;-76
2022/07/04 10:01:41;;;;;;;8.88;2.35;;;23.90;98.70;;;;;;5011485;28;20124;-76
2022/07/04 10:04:09;;;;;;;7.10;2.20;;;;;;;;;;5014334;28;20091;-77
2022/07/04 10:06:37;;;;;;;6.15;1.90;;;23.40;95.80;;;;;;5032684;28;20053;-76
2022/07/04 10:09:09;;;;;;;5.75;2.03;;;23.40;96.70;;;;;;5032633;28;20049;-76
2022/07/04 10:11:36;;;;;;;5.65;2.10;;;23.60;95.70;;;;;;4993297;28;20385;-77
2022/07/04 10:14:03;;;;;;;7.25;2.10;;;23.60;93.00;;;;;;4994931;28;20057;-76
2022/07/04 10:16:31;;;;;;;5.45;2.05;;;23.60;93.40;;;;;;5012367;28;20107;-76
2022/07/04 10:18:56;;;;;;;5.53;2.08;;;24.30;94.50;;;;;;5031428;28;20665;-76
2022/07/04 10:21:26;;;;;;;5.57;1.80;;;24.50;93.70;;;;;;5029591;28;20113;-76
2022/07/04 10:23:52;;;;;;;4.35;1.83;;;;;;;;;;5032026;28;20050;-77
2022/07/04 10:26:19;;;;;;;4.32;1.80;;;24.50;86.20;;;;;;5032112;28;20049;-77
2022/07/04 10:28:47;;;;;;;7.82;1.98;;;24.50;84.80;;;;;;5014234;28;20053;-76
2022/07/04 10:31:14;;;;;;;6.50;1.88;;;24.50;83.60;;;;;;5008373;28;20045;-76
2022/07/04 10:33:40;;;;;;;4.38;1.95;;;;;;;;;;5019738;28;20511;-76
2022/07/04 10:36:20;;;;;;;4.80;1.65;;;24.50;90.10;;;;;;4999713;28;20063;-76
2022/07/04 10:38:51;;;;;;;6.30;1.73;;;24.80;86.80;;;;;;4995740;28;20140;-76
2022/07/04 10:41:21;;;;;;;3.53;1.83;;;24.70;87.00;;;;;;5028575;28;20082;-76
2022/07/04 10:44:01;;;;;;;4.68;1.63;;;24.90;85.70;;;;;;4994670;28;20046;-77
2022/07/04 10:46:29;;;;;;;5.13;1.70;;;24.60;77.00;;;;;;5012562;28;20057;-77
2022/07/04 10:48:58;;;;;;;5.18;1.80;;;24.50;76.40;;;;;;4994867;28;20069;-77
2022/07/04 10:51:41;;;;;;;5.93;1.80;;;24.80;82.20;;;;;;4994730;28;20121;-76
2022/07/04 10:54:14;;;;;;;5.35;1.60;;;25.10;81.30;;;;;;4996992;28;20057;-76
2022/07/04 10:56:50;;;;;;;4.93;1.73;;;25.00;79.40;;;;;;5032808;28;20092;-76
2022/07/04 10:59:28;;;;;;;3.58;1.70;;;25.00;80.90;;;;;;5014256;28;20552;-77
2022/07/04 11:02:06;;;;;;;4.03;1.60;;;24.40;70.40;;;;;;5031789;28;20112;-77
2022/07/04 11:04:52;;;;;;;5.93;1.90;;;24.40;72.80;;;;;;5013411;28;20049;-77
2022/07/04 11:07:34;;;;;;;9.10;1.80;;;23.20;81.50;;;;;;5031455;28;20053;-77
2022/07/04 11:10:12;;;;;;;5.03;1.90;;;24.20;81.40;;;;;;5031424;28;20422;-77
2022/07/04 11:12:53;;;;;;;4.50;1.80;;;24.40;70.40;;;;;;5017900;28;20046;-77
2022/07/04 11:15:40;;;;;;;3.22;1.55;;;24.60;72.60;;;;;;4993893;28;20053;-76
2022/07/04 11:18:14;;;;;;;3.72;1.88;;;24.70;79.40;;;;;;4993825;28;20125;-77
2022/07/04 11:20:47;;;;;;;4.50;1.73;;;24.20;73.60;;;;;;5011926;28;20046;-77
2022/07/04 11:23:20;;;;;;;5.60;1.67;;;24.80;83.30;;;;;;4977716;28;20052;-77
2022/07/04 11:25:50;;;;;;;10.05;1.90;;;24.60;81.40;;;;;;5011669;28;20057;-77
2022/07/04 11:28:25;;;;;;;15.55;2.13;;;24.50;73.90;;;;;;4977455;28;20083;-76
2022/07/04 11:30:57;;;;;;;23.60;3.45;;;24.70;74.40;;;;;;5011126;28;20058;-77
2022/07/04 11:33:28;;;;;;;3.60;1.60;;;24.80;78.00;;;;;;4977853;28;20053;-76
2022/07/04 11:36:04;;;;;;;14.30;2.13;;;25.00;73.20;;;;;;4993723;28;20493;-77
2022/07/04 11:38:53;;;;;;;7.07;2.40;;;25.00;80.10;;;;;;5011453;28;20485;-77
2022/07/04 11:45:09;;;;;;;9.85;2.00;;;25.20;69.10;;;;;;5013051;28;20107;-77
2022/07/04 11:47:06;;;;;;;14.13;2.10;;;25.10;66.90;;;;;;5000185;28;20145;-78
2022/07/04 11:49:33;;;;;;;4.20;1.90;;;25.00;68.60;;;;;;5013417;28;20458;-76
2022/07/04 11:51:59;;;;;;;5.32;1.50;;;24.60;78.10;;;;;;5013302;28;20349;-77
2022/07/04 11:54:25;;;;;;;6.47;1.65;;;25.10;70.10;;;;;;5030425;28;20047;-77
2022/07/04 11:56:51;;;;;;;9.35;1.70;;;25.20;68.10;;;;;;5013389;28;20412;-77
2022/07/04 11:59:26;;;;;;;5.20;1.70;;;25.10;67.30;;;;;;5024530;28;20119;-77
2022/07/04 12:01:52;;;;;;;5.03;1.70;;;25.10;72.80;;;;;;5005384;28;20069;-77
2022/07/04 12:04:19;;;;;;;4.10;1.70;;;24.40;73.60;;;;;;5005326;28;20496;-77
2022/07/04 12:06:46;;;;;;;7.20;1.80;;;24.90;66.90;;;;;;5032406;28;20050;-77
2022/07/04 12:09:15;;;;;;;2.85;1.60;;;24.50;75.90;;;;;;5031489;28;20072;-77
2022/07/04 12:11:50;;;;;;;3.15;1.60;;;23.80;75.30;;;;;;4991979;28;20531;-77
2022/07/04 12:14:16;;;;;;;6.68;1.52;;;24.40;67.90;;;;;;5012334;28;20054;-77
2022/07/04 12:16:42;;;;;;;9.95;2.25;;;24.80;74.10;;;;;;5012747;28;20522;-77
2022/07/04 12:19:11;;;;;;;8.55;1.85;;;24.70;74.40;;;;;;5027428;28;20038;-77
2022/07/04 12:21:36;;;;;;;7.43;1.80;;;24.90;66.30;;;;;;5010916;28;20587;-77
2022/07/04 12:24:03;;;;;;;5.88;2.05;;;26.90;76.60;;;;;;5013267;28;20203;-77
2022/07/04 12:26:31;;;;;;;5.00;1.60;;;25.70;72.00;;;;;;5008659;28;20153;-77
2022/07/04 12:28:57;;;;;;;7.60;1.65;;;25.60;65.30;;;;;;5005641;28;20049;-77
2022/07/04 12:31:41;;;;;;;4.47;1.60;;;25.80;65.20;;;;;;4995286;28;20053;-77
2022/07/04 12:34:17;;;;;;;3.72;1.42;;;25.80;63.10;;;;;;5012064;28;20078;-77
2022/07/04 12:36:56;;;;;;;4.18;1.50;;;25.60;64.00;;;;;;4977483;28;20057;-77
2022/07/04 12:39:43;;;;;;;3.97;1.60;;;25.70;63.20;;;;;;5011571;28;20050;-77
2022/07/04 12:42:19;;;;;;;6.15;1.83;;;25.80;71.10;;;;;;4992320;28;20157;-77
2022/07/04 12:44:49;;;;;;;3.60;1.70;;;25.80;64.40;;;;;;4980980;28;20742;-77
2022/07/04 12:47:15;;;;;;;4.88;1.50;;;25.80;64.30;;;;;;4996249;28;20054;-76
2022/07/04 12:49:46;;;;;;;3.70;1.40;;;25.90;64.10;;;;;;4997120;28;20050;-76
2022/07/04 12:52:14;;;;;;;2.97;1.50;;;25.80;62.20;;;;;;5028833;28;20052;-77
2022/07/04 12:54:41;;;;;;;9.45;1.60;;;25.70;62.00;;;;;;5006083;28;20046;-77
2022/07/04 12:57:13;;;;;;;5.65;1.70;;;25.70;63.50;;;;;;5001314;28;20140;-77
2022/07/04 12:59:39;;;;;;;4.65;1.55;;;25.80;65.00;;;;;;5005409;28;20483;-77
2022/07/04 13:02:06;;;;;;;7.90;1.70;;;25.90;62.70;;;;;;4988143;28;20084;-77
2022/07/04 13:04:33;;;;;;;4.72;1.60;;;26.10;64.50;;;;;;4981969;28;20051;-76
2022/07/04 13:07:11;;;;;;;4.70;1.42;;;26.20;63.10;;;;;;4992521;28;20054;-77
2022/07/04 13:09:36;;;;;;;9.23;1.83;;;25.10;67.80;;;;;;4993848;28;20108;-77